Terminal Aerodrome Forecast
Issued by NWS Portland, OR

Home | Current Version | Previous Version | Text Only | Print | Product List | Glossary On
Versions: 1 2 3 4 5 6 7 8 9 10 11 12 13 14 15 16 17 18 19 20
000
FTUS46 KPQR 171532 AAB
TAFHIO
TAF AMD
KHIO 171532Z 1716/1812 00000KT 1/4SM FG VV001
     FM171700 VRB03KT 2SM BR SCT003 BKN009
     FM171800 18010KT 6SM -RA BR SCT008 BKN025 OVC045
     FM172300 25007KT P6SM VCSH SCT025 BKN050
     FM181000 VRB03KT 4SM BR SCT015=

USA.gov is the U.S. government's official web portal to all federal, state and local government web resources and services.